createdAt,value
2023-06-04T00:03:27.482Z,101711.63
2023-06-04T00:08:33.310Z,101704.73
2023-06-04T00:13:38.969Z,101704.31
2023-06-04T00:18:44.546Z,101703.52
2023-06-04T00:23:50.237Z,101700.64
2023-06-04T00:28:58.969Z,101699.67
2023-06-04T00:34:06.594Z,101692.48
2023-06-04T00:39:12.407Z,101682.81
2023-06-04T00:44:18.917Z,101683.95
2023-06-04T00:49:24.674Z,101681.06
2023-06-04T00:54:30.510Z,101680.49
2023-06-04T00:59:38.398Z,101686.25
2023-06-04T01:04:58.987Z,101685.64
2023-06-04T01:10:05.166Z,101684.11
2023-06-04T01:15:12.600Z,101685.64
2023-06-04T01:20:26.946Z,101686.30
2023-06-04T01:25:41.061Z,101681.92
2023-06-04T01:30:48.590Z,101675.36
2023-06-04T01:35:54.285Z,101675.89
2023-06-04T01:41:01.510Z,101670.66
2023-06-04T01:46:07.213Z,101667.71
2023-06-04T01:51:12.982Z,101671.38
2023-06-04T01:56:18.806Z,101669.58
2023-06-04T02:01:24.574Z,101667.13
2023-06-04T02:06:31.304Z,101666.63
2023-06-04T02:11:37.034Z,101663.09
2023-06-04T02:16:42.878Z,101665.54
2023-06-04T02:21:48.836Z,101658.92
2023-06-04T02:26:56.841Z,101658.62
2023-06-04T02:32:02.722Z,101661.95
2023-06-04T02:37:10.180Z,101664.27
2023-06-04T02:42:16.238Z,101658.22
2023-06-04T02:47:21.836Z,101662.41
2023-06-04T02:52:27.606Z,101665.14
2023-06-04T02:57:33.364Z,101666.53
2023-06-04T03:02:39.054Z,101662.64
2023-06-04T03:07:46.811Z,101666.77
2023-06-04T03:12:52.305Z,101662.81
2023-06-04T03:17:58.489Z,101665.25
2023-06-04T03:23:04.259Z,101662.81
2023-06-04T03:28:09.924Z,101667.45
2023-06-04T03:33:15.803Z,101667.28
2023-06-04T03:38:21.875Z,101673.11
2023-06-04T03:43:27.643Z,101667.98
2023-06-04T03:48:34.973Z,101665.84
2023-06-04T03:53:40.871Z,101664.97
2023-06-04T03:58:47.404Z,101665.30
2023-06-04T04:03:55.040Z,101669.15
2023-06-04T04:09:01.069Z,101670.17
2023-06-04T04:14:06.787Z,101679.81
2023-06-04T04:19:12.962Z,101675.94
2023-06-04T04:24:28.772Z,101671.96
2023-06-04T04:29:36.361Z,101672.25
2023-06-04T04:34:46.018Z,101666.47
2023-06-04T04:39:55.796Z,101680.51
2023-06-04T04:45:02.987Z,101682.03
2023-06-04T04:50:09.715Z,101681.96
2023-06-04T04:55:15.546Z,101684.74
2023-06-04T05:00:22.790Z,101684.80
2023-06-04T05:05:30.082Z,101681.83
2023-06-04T05:10:37.398Z,101684.78
2023-06-04T05:15:43.567Z,101681.69
2023-06-04T05:20:50.843Z,101673.10
2023-06-04T05:25:57.239Z,101681.09
2023-06-04T05:31:03.882Z,101674.20
2023-06-04T05:36:11.535Z,101675.36
2023-06-04T05:41:18.851Z,101672.66
2023-06-04T05:46:24.747Z,101677.63
2023-06-04T05:51:32.580Z,101674.91
2023-06-04T05:56:38.828Z,101676.67
2023-06-04T06:01:44.844Z,101678.11
2023-06-04T06:06:50.766Z,101681.97
2023-06-04T06:11:56.687Z,101694.84
2023-06-04T06:17:04.036Z,101699.56
2023-06-04T06:22:09.705Z,101701.41
2023-06-04T06:27:16.442Z,101704.49
2023-06-04T06:32:23.814Z,101704.94
2023-06-04T06:37:29.681Z,101714.52
2023-06-04T06:42:35.700Z,101712.91
2023-06-04T06:47:41.372Z,101721.26
2023-06-04T06:52:47.090Z,101718.83
2023-06-04T06:57:54.151Z,101722.78
2023-06-04T07:03:00.389Z,101722.38
2023-06-04T07:08:06.660Z,101721.84
2023-06-04T07:13:12.526Z,101720.27
2023-06-04T07:18:18.307Z,101717.15
2023-06-04T07:23:23.921Z,101722.58
2023-06-04T07:28:29.653Z,101728.53
2023-06-04T07:33:35.705Z,101732.33
2023-06-04T07:38:41.364Z,101727.31
2023-06-04T07:43:46.958Z,101730.05
2023-06-04T07:48:52.811Z,101727.84
2023-06-04T07:53:58.480Z,101721.62
2023-06-04T07:59:04.345Z,101722.94
2023-06-04T08:04:10.354Z,101730.31
2023-06-04T08:09:16.613Z,101726.02
2023-06-04T08:14:23.601Z,101714.16
2023-06-04T08:19:29.440Z,101715.41
2023-06-04T08:24:35.339Z,101721.17
2023-06-04T08:29:41.709Z,101715.89
2023-06-04T08:34:47.605Z,101719.55
2023-06-04T08:39:54.296Z,101721.09
2023-06-04T08:45:01.317Z,101718.13
2023-06-04T08:50:10.306Z,101719.17
2023-06-04T08:55:17.029Z,101720.27
2023-06-04T09:00:23.804Z,101722.39
2023-06-04T09:05:29.590Z,101722.66
2023-06-04T09:10:37.774Z,101724.23
2023-06-04T09:15:43.524Z,101722.27
2023-06-04T09:20:49.249Z,101720.91
2023-06-04T09:25:56.368Z,101718.55
2023-06-04T09:31:03.640Z,101715.01
2023-06-04T09:36:09.548Z,101717.84
2023-06-04T09:41:21.653Z,101718.81
2023-06-04T09:46:27.372Z,101714.74
2023-06-04T09:51:34.319Z,101719.06
2023-06-04T09:56:43.534Z,101715.84
2023-06-04T10:01:50.613Z,101710.88
2023-06-04T10:06:56.595Z,101714.49
2023-06-04T10:12:03.571Z,101711.36
2023-06-04T10:17:11.541Z,101706.30
2023-06-04T10:22:17.641Z,101703.91
2023-06-04T10:27:24.654Z,101712.73
2023-06-04T10:32:32.467Z,101712.83
2023-06-04T10:37:38.350Z,101715.20
2023-06-04T10:42:45.136Z,101703.20
2023-06-04T10:47:54.421Z,101709.33
2023-06-04T10:53:00.218Z,101711.59
2023-06-04T10:58:07.443Z,101706.03
2023-06-04T11:03:14.259Z,101710.72
2023-06-04T11:08:31.820Z,101701.42
2023-06-04T11:13:38.472Z,101700.30
2023-06-04T11:18:44.360Z,101707.14
2023-06-04T11:23:50.263Z,101688.46
2023-06-04T11:28:56.083Z,101688.79
2023-06-04T11:34:01.763Z,101700.28
2023-06-04T11:39:08.143Z,101682.13
2023-06-04T11:44:15.692Z,101683.88
2023-06-04T11:49:22.378Z,101678.50
2023-06-04T11:54:28.227Z,101689.80
2023-06-04T11:59:34.268Z,101672.81
2023-06-04T12:04:40.143Z,101676.30
2023-06-04T12:09:46.199Z,101680.54
2023-06-04T12:14:59.989Z,101680.28
2023-06-04T12:20:07.250Z,101681.55
2023-06-04T12:25:13.003Z,101673.38
2023-06-04T12:30:18.643Z,101672.02
2023-06-04T12:35:24.301Z,101673.20
2023-06-04T12:40:29.965Z,101675.69
2023-06-04T12:45:35.836Z,101668.23
2023-06-04T12:50:41.915Z,101671.16
2023-06-04T12:55:47.629Z,101675.74
2023-06-04T13:00:53.198Z,101675.95
2023-06-04T13:05:59.668Z,101670.23
2023-06-04T13:11:05.928Z,101671.98
2023-06-04T13:16:12.050Z,101673.36
2023-06-04T13:21:17.868Z,101667.59
2023-06-04T13:26:24.084Z,101662.88
2023-06-04T13:31:29.803Z,101669.51
2023-06-04T13:36:36.097Z,101664.73
2023-06-04T13:41:41.691Z,101657.42
2023-06-04T13:46:47.257Z,101657.08
2023-06-04T13:51:52.798Z,101652.19
2023-06-04T13:56:58.493Z,101646.13
2023-06-04T14:02:04.057Z,101647.02
2023-06-04T14:07:09.696Z,101646.05
2023-06-04T14:12:17.231Z,101645.15
2023-06-04T14:17:22.939Z,101642.53
2023-06-04T14:22:28.735Z,101637.37
2023-06-04T14:27:35.192Z,101635.62
2023-06-04T14:32:41.687Z,101634.45
2023-06-04T14:37:47.489Z,101640.45
2023-06-04T14:42:53.345Z,101631.15
2023-06-04T14:48:13.345Z,101628.91
2023-06-04T14:53:07.971Z,101622.19
2023-06-04T14:58:13.547Z,101631.85
2023-06-04T15:03:19.316Z,101621.39
2023-06-04T15:08:25.184Z,101621.38
2023-06-04T15:13:31.053Z,101615.42
2023-06-04T15:18:36.818Z,101612.47
2023-06-04T15:23:44.806Z,101606.39
2023-06-04T15:28:50.501Z,101613.95
2023-06-04T15:33:56.579Z,101610.23
2023-06-04T15:39:02.269Z,101607.06
2023-06-04T15:44:07.911Z,101606.17
2023-06-04T15:49:13.894Z,101604.56
2023-06-04T15:54:26.970Z,101607.14
2023-06-04T15:59:26.860Z,101613.03
2023-06-04T16:04:32.740Z,101612.98
2023-06-04T16:09:38.456Z,101602.15
2023-06-04T16:14:44.079Z,101609.08
2023-06-04T16:19:49.764Z,101603.11
2023-06-04T16:24:55.291Z,101596.37
2023-06-04T16:30:00.929Z,101596.27
2023-06-04T16:35:08.782Z,101601.79
2023-06-04T16:40:14.550Z,101601.67
2023-06-04T16:45:20.953Z,101602.23
2023-06-04T16:50:26.632Z,101601.56
2023-06-04T16:55:33.293Z,101599.66
2023-06-04T17:00:41.081Z,101593.55
2023-06-04T17:05:47.904Z,101600.67
2023-06-04T17:10:53.648Z,101594.94
2023-06-04T17:15:59.441Z,101589.47
2023-06-04T17:21:05.114Z,101597.98
2023-06-04T17:26:10.992Z,101601.03
2023-06-04T17:31:18.320Z,101600.14
2023-06-04T17:36:24.157Z,101597.24
2023-06-04T17:41:29.835Z,101596.05
2023-06-04T17:46:35.556Z,101601.55
2023-06-04T17:51:41.498Z,101602.84
2023-06-04T17:56:47.136Z,101616.03
2023-06-04T18:01:52.876Z,101603.70
2023-06-04T18:07:00.004Z,101600.88
2023-06-04T18:12:08.022Z,101606.06
2023-06-04T18:17:13.930Z,101603.95
2023-06-04T18:22:20.929Z,101602.89
2023-06-04T18:27:27.290Z,101607.13
2023-06-04T18:32:33.174Z,101601.52
2023-06-04T18:37:38.796Z,101614.02
2023-06-04T18:42:45.537Z,101611.48
2023-06-04T18:47:51.191Z,101613.48
2023-06-04T18:52:57.156Z,101624.16
2023-06-04T18:58:02.773Z,101632.27
2023-06-04T19:03:08.533Z,101629.48
2023-06-04T19:08:14.255Z,101632.20
2023-06-04T19:13:20.746Z,101638.19
2023-06-04T19:18:26.585Z,101640.61
2023-06-04T19:23:32.733Z,101646.67
2023-06-04T19:28:40.542Z,101656.47
2023-06-04T19:33:46.603Z,101654.27
2023-06-04T19:38:52.252Z,101663.22
2023-06-04T19:43:58.052Z,101665.56
2023-06-04T19:49:05.323Z,101672.00
2023-06-04T19:54:11.037Z,101679.20
2023-06-04T19:59:17.520Z,101671.28
2023-06-04T20:04:23.188Z,101674.86
2023-06-04T20:09:28.937Z,101685.98
2023-06-04T20:14:36.795Z,101686.26
2023-06-04T20:19:42.716Z,101697.83
2023-06-04T20:24:48.801Z,101696.02
2023-06-04T20:29:54.563Z,101701.13
2023-06-04T20:35:00.161Z,101702.39
2023-06-04T20:40:06.556Z,101702.55
2023-06-04T20:45:12.271Z,101705.46
2023-06-04T20:50:18.155Z,101713.53
2023-06-04T20:55:23.945Z,101722.02
2023-06-04T21:00:30.552Z,101719.02
2023-06-04T21:05:36.416Z,101724.29
2023-06-04T21:10:42.050Z,101727.98
2023-06-04T21:15:47.843Z,101730.87
2023-06-04T21:20:53.904Z,101730.73
2023-06-04T21:25:59.595Z,101732.76
2023-06-04T21:31:05.229Z,101732.36
2023-06-04T21:36:10.890Z,101734.17
2023-06-04T21:41:16.471Z,101739.22
2023-06-04T21:46:22.424Z,101729.92
2023-06-04T21:51:28.109Z,101734.17
2023-06-04T21:56:33.672Z,101734.86
2023-06-04T22:01:39.812Z,101740.20
2023-06-04T22:06:45.923Z,101744.06
2023-06-04T22:11:51.694Z,101750.36
2023-06-04T22:16:57.460Z,101754.20
2023-06-04T22:22:03.267Z,101751.62
2023-06-04T22:27:09.009Z,101752.75
2023-06-04T22:32:14.874Z,101754.41
2023-06-04T22:37:22.273Z,101746.70
2023-06-04T22:42:27.940Z,101750.63
2023-06-04T22:47:33.661Z,101742.73
2023-06-04T22:52:41.339Z,101741.46
2023-06-04T22:57:47.001Z,101741.47
2023-06-04T23:02:52.711Z,101736.66
2023-06-04T23:07:58.743Z,101731.98
2023-06-04T23:13:04.401Z,101735.70
2023-06-04T23:18:10.004Z,101739.05
2023-06-04T23:23:15.955Z,101733.72
2023-06-04T23:28:21.817Z,101734.19
2023-06-04T23:33:27.652Z,101735.98
2023-06-04T23:38:33.260Z,101741.93
2023-06-04T23:43:38.813Z,101740.66
2023-06-04T23:48:44.484Z,101739.45
2023-06-04T23:53:50.046Z,101743.47
2023-06-04T23:58:56.027Z,101743.25
